createdAt,value
2022-12-18T00:01:53.504Z,-7.69
2022-12-18T00:04:44.830Z,-7.12
2022-12-18T00:07:31.802Z,-7.09
2022-12-18T00:10:18.846Z,-7.08
2022-12-18T00:13:09.873Z,-7.08
2022-12-18T00:15:58.745Z,-7.07
2022-12-18T00:18:45.695Z,-7.05
2022-12-18T00:21:34.179Z,-7.84
2022-12-18T00:24:21.419Z,-7.02
2022-12-18T00:27:08.607Z,-7.00
2022-12-18T00:29:55.477Z,-6.98
2022-12-18T00:32:42.501Z,-6.98
2022-12-18T00:35:29.549Z,-7.07
2022-12-18T00:38:16.515Z,-6.95
2022-12-18T00:41:04.936Z,-7.05
2022-12-18T00:43:51.928Z,-6.93
2022-12-18T00:46:39.042Z,-6.91
2022-12-18T00:49:26.227Z,-6.91
2022-12-18T00:52:15.940Z,-6.89
2022-12-18T00:55:06.263Z,-6.89
2022-12-18T00:57:53.666Z,-6.90
2022-12-18T01:00:28.922Z,-6.88
2022-12-18T01:03:15.890Z,-6.87
2022-12-18T01:06:04.491Z,-7.51
2022-12-18T01:08:51.392Z,-7.13
2022-12-18T01:11:41.067Z,-6.83
2022-12-18T01:14:28.011Z,-6.81
2022-12-18T01:17:14.907Z,-6.79
2022-12-18T01:20:01.969Z,-6.78
2022-12-18T01:22:48.889Z,-6.77
2022-12-18T01:25:36.087Z,-6.76
2022-12-18T01:28:23.336Z,-6.74
2022-12-18T01:31:10.221Z,-6.72
2022-12-18T01:33:57.074Z,-6.72
2022-12-18T01:36:46.841Z,-6.70
2022-12-18T01:39:35.942Z,-6.70
2022-12-18T01:42:41.635Z,-6.77
2022-12-18T01:45:37.316Z,-6.65
2022-12-18T01:48:29.075Z,-6.65
2022-12-18T01:51:16.024Z,-6.73
2022-12-18T01:54:05.050Z,-6.63
2022-12-18T01:56:32.268Z,-6.61
2022-12-18T01:59:09.151Z,-6.60
2022-12-18T02:01:39.079Z,-7.08
2022-12-18T02:04:26.907Z,-6.58
2022-12-18T02:07:06.457Z,-6.56
2022-12-18T02:09:42.823Z,-6.55
2022-12-18T02:12:25.412Z,-6.52
2022-12-18T02:14:59.949Z,-6.51
2022-12-18T02:17:37.704Z,-6.53
2022-12-18T02:20:17.619Z,-6.48
2022-12-18T02:23:12.637Z,-6.46
2022-12-18T02:26:13.989Z,-6.45
2022-12-18T02:29:10.319Z,-6.87
2022-12-18T02:32:03.975Z,-6.49
2022-12-18T02:34:53.941Z,-6.39
2022-12-18T02:37:44.205Z,-6.39
2022-12-18T02:40:33.517Z,-6.37
2022-12-18T02:43:35.650Z,-6.34
2022-12-18T02:46:48.520Z,-6.34
2022-12-18T02:49:45.157Z,-6.32
2022-12-18T02:52:55.482Z,-6.32
2022-12-18T02:55:48.761Z,-6.32
2022-12-18T02:58:47.063Z,-6.30
2022-12-18T03:02:05.838Z,-6.28
2022-12-18T03:05:04.590Z,-6.26
2022-12-18T03:08:04.482Z,-6.24
2022-12-18T03:11:03.422Z,-6.22
2022-12-18T03:13:54.688Z,-6.19
2022-12-18T03:16:48.532Z,-6.37
2022-12-18T03:19:39.388Z,-6.15
2022-12-18T03:22:28.650Z,-6.13
2022-12-18T03:25:17.859Z,-6.11
2022-12-18T03:28:12.426Z,-6.09
2022-12-18T03:31:02.637Z,-6.41
2022-12-18T03:33:59.067Z,-6.06
2022-12-18T03:36:53.608Z,-6.04
2022-12-18T03:39:42.817Z,-6.01
2022-12-18T03:42:44.299Z,-6.00
2022-12-18T03:45:40.782Z,-5.98
2022-12-18T03:48:41.949Z,-6.00
2022-12-18T03:51:39.354Z,-5.94
2022-12-18T03:54:30.077Z,-5.92
2022-12-18T03:57:39.415Z,-5.91
2022-12-18T04:00:33.684Z,-5.88
2022-12-18T04:03:28.232Z,-5.86
2022-12-18T04:06:18.895Z,-5.84
2022-12-18T04:09:07.643Z,-5.81
2022-12-18T04:11:59.087Z,-5.94
2022-12-18T04:14:46.224Z,-5.77
2022-12-18T04:17:33.824Z,-5.77
2022-12-18T04:20:21.653Z,-5.77
2022-12-18T04:23:09.004Z,-5.79
2022-12-18T04:25:57.084Z,-5.69
2022-12-18T04:28:58.719Z,-5.95
2022-12-18T04:31:45.947Z,-5.66
2022-12-18T04:34:33.202Z,-6.19
2022-12-18T04:37:20.340Z,-5.62
2022-12-18T04:40:09.900Z,-5.70
2022-12-18T04:43:01.890Z,-5.58
2022-12-18T04:45:49.022Z,-5.56
2022-12-18T04:48:35.910Z,-5.54
2022-12-18T04:51:26.574Z,-5.51
2022-12-18T04:54:14.440Z,-5.50
2022-12-18T04:57:01.546Z,-5.48
2022-12-18T04:59:48.595Z,-5.47
2022-12-18T05:02:35.641Z,-5.45
2022-12-18T05:05:22.832Z,-5.41
2022-12-18T05:08:09.738Z,-6.06
2022-12-18T05:10:57.696Z,-5.39
2022-12-18T05:13:44.821Z,-5.37
2022-12-18T05:16:32.929Z,-5.74
2022-12-18T05:19:20.041Z,-5.33
2022-12-18T05:22:07.003Z,-5.32
2022-12-18T05:24:54.320Z,-5.29
2022-12-18T05:27:41.275Z,-5.29
2022-12-18T05:30:29.222Z,-5.27
2022-12-18T05:33:16.149Z,-5.38
2022-12-18T05:36:03.824Z,-5.50
2022-12-18T05:38:53.188Z,-5.23
2022-12-18T05:41:40.293Z,-5.45
2022-12-18T05:44:28.488Z,-5.17
2022-12-18T05:47:15.502Z,-5.16
2022-12-18T05:50:02.337Z,-5.16
2022-12-18T05:52:49.344Z,-5.14
2022-12-18T05:55:36.231Z,-5.13
2022-12-18T05:58:24.344Z,-5.49
2022-12-18T06:01:11.182Z,-5.10
2022-12-18T06:03:59.811Z,-5.10
2022-12-18T06:06:48.977Z,-5.09
2022-12-18T06:09:35.994Z,-5.08
2022-12-18T06:12:22.851Z,-5.12
2022-12-18T06:15:09.975Z,-5.09
2022-12-18T06:17:57.532Z,-5.09
2022-12-18T06:20:44.666Z,-5.11
2022-12-18T06:23:31.560Z,-5.07
2022-12-18T06:26:21.076Z,-5.10
2022-12-18T06:29:11.562Z,-5.07
2022-12-18T06:31:58.850Z,-5.06
2022-12-18T06:34:45.697Z,-5.05
2022-12-18T06:37:32.670Z,-5.05
2022-12-18T06:40:19.470Z,-5.06
2022-12-18T06:43:06.575Z,-5.09
2022-12-18T06:45:53.599Z,-5.03
2022-12-18T06:48:41.098Z,-5.03
2022-12-18T06:51:28.041Z,-5.06
2022-12-18T06:54:15.147Z,-5.03
2022-12-18T06:57:02.100Z,-5.04
2022-12-18T06:59:49.046Z,-5.01
2022-12-18T07:02:36.482Z,-5.00
2022-12-18T07:05:23.827Z,-5.00
2022-12-18T07:08:10.695Z,-4.98
2022-12-18T07:11:05.027Z,-4.98
2022-12-18T07:13:52.273Z,-4.97
2022-12-18T07:16:41.498Z,-4.96
2022-12-18T07:19:28.503Z,-4.95
2022-12-18T07:22:16.243Z,-4.96
2022-12-18T07:25:03.194Z,-4.98
2022-12-18T07:27:50.084Z,-5.07
2022-12-18T07:30:37.309Z,-5.02
2022-12-18T07:33:24.291Z,-4.96
2022-12-18T07:36:11.333Z,-5.25
2022-12-18T07:38:58.751Z,-4.93
2022-12-18T07:41:47.016Z,-4.92
2022-12-18T07:44:36.470Z,-4.89
2022-12-18T07:47:23.460Z,-4.87
2022-12-18T07:50:10.484Z,-4.99
2022-12-18T07:52:57.342Z,-4.85
2022-12-18T07:56:11.219Z,-4.84
2022-12-18T07:58:51.836Z,-4.90
2022-12-18T08:01:38.955Z,-4.79
2022-12-18T08:04:26.019Z,-5.05
2022-12-18T08:07:13.144Z,-4.76
2022-12-18T08:10:00.006Z,-4.75
2022-12-18T08:12:46.996Z,-4.74
2022-12-18T08:15:34.043Z,-4.73
2022-12-18T08:18:21.071Z,-4.81
2022-12-18T08:21:07.927Z,-4.70
2022-12-18T08:23:54.917Z,-5.06
2022-12-18T08:26:45.582Z,-4.67
2022-12-18T08:29:38.847Z,-4.66
2022-12-18T08:32:26.026Z,-4.63
2022-12-18T08:35:13.299Z,-5.29
2022-12-18T08:38:00.580Z,-5.28
2022-12-18T08:40:47.619Z,-4.82
2022-12-18T08:43:33.193Z,-4.55
2022-12-18T08:46:20.320Z,-4.53
2022-12-18T08:49:07.874Z,-4.51
2022-12-18T08:51:55.626Z,-4.48
2022-12-18T08:54:42.461Z,-4.47
2022-12-18T08:57:29.384Z,-4.52
2022-12-18T09:00:16.317Z,-4.43
2022-12-18T09:03:04.053Z,-4.44
2022-12-18T09:05:51.607Z,-4.38
2022-12-18T09:08:39.076Z,-4.37
2022-12-18T09:11:34.062Z,-4.33
2022-12-18T09:14:22.305Z,-4.43
2022-12-18T09:17:09.282Z,-4.29
2022-12-18T09:19:56.355Z,-4.26
2022-12-18T09:22:43.357Z,-4.25
2022-12-18T09:25:30.507Z,-4.21
2022-12-18T09:28:17.348Z,-4.19
2022-12-18T09:31:09.997Z,-4.16
2022-12-18T09:33:57.323Z,-4.13
2022-12-18T09:36:25.136Z,-4.12
2022-12-18T09:38:52.306Z,-4.10
2022-12-18T09:41:47.091Z,-4.07
2022-12-18T09:44:55.187Z,-4.04
2022-12-18T09:48:00.302Z,-4.02
2022-12-18T09:50:55.767Z,-3.99
2022-12-18T09:53:47.777Z,-3.97
2022-12-18T09:56:40.311Z,-4.08
2022-12-18T09:59:33.507Z,-3.93
2022-12-18T10:02:20.615Z,-3.94
2022-12-18T10:05:24.673Z,-4.02
2022-12-18T10:08:20.268Z,-3.85
2022-12-18T10:11:11.964Z,-3.81
2022-12-18T10:14:05.567Z,-3.80
2022-12-18T10:17:12.833Z,-3.77
2022-12-18T10:20:19.798Z,-3.75
2022-12-18T10:23:01.147Z,-3.74
2022-12-18T10:25:52.920Z,-3.72
2022-12-18T10:28:41.741Z,-3.72
2022-12-18T10:31:37.652Z,-3.67
2022-12-18T10:34:24.718Z,-3.64
2022-12-18T10:37:11.631Z,-3.62
2022-12-18T10:39:58.694Z,-3.60
2022-12-18T10:42:45.475Z,-3.59
2022-12-18T10:45:35.803Z,-3.63
2022-12-18T10:48:22.712Z,-3.57
2022-12-18T10:51:13.503Z,-3.50
2022-12-18T10:54:02.994Z,-3.49
2022-12-18T10:56:54.447Z,-3.47
2022-12-18T10:59:41.279Z,-3.45
2022-12-18T11:02:58.951Z,-3.46
2022-12-18T11:05:54.660Z,-3.41
2022-12-18T11:08:43.044Z,-3.39
2022-12-18T11:11:44.719Z,-3.36
2022-12-18T11:14:43.579Z,-3.35
2022-12-18T11:17:50.592Z,-3.31
2022-12-18T11:20:47.120Z,-3.29
2022-12-18T11:23:34.548Z,-3.26
2022-12-18T11:26:25.024Z,-3.34
2022-12-18T11:29:28.328Z,-3.22
2022-12-18T11:32:34.080Z,-3.19
2022-12-18T11:35:44.568Z,-3.18
2022-12-18T11:38:45.384Z,-3.15
2022-12-18T11:41:55.619Z,-3.13
2022-12-18T11:45:02.421Z,-4.03
2022-12-18T11:48:00.126Z,-3.09
2022-12-18T11:51:27.341Z,-3.06
2022-12-18T11:54:14.443Z,-3.03
2022-12-18T11:57:10.019Z,-3.36
2022-12-18T12:00:11.437Z,-2.99
2022-12-18T12:03:16.377Z,-2.97
2022-12-18T12:06:41.324Z,-2.93
2022-12-18T12:09:43.605Z,-2.92
2022-12-18T12:12:52.700Z,-2.89
2022-12-18T12:16:07.817Z,-2.87
2022-12-18T12:19:12.615Z,-2.85
2022-12-18T12:22:02.824Z,-2.82
2022-12-18T12:25:10.792Z,-2.80
2022-12-18T16:13:26.531Z,-1.69
2022-12-18T16:15:54.018Z,-1.67
2022-12-18T16:18:21.092Z,-1.67
2022-12-18T16:21:08.060Z,-1.68
2022-12-18T16:23:54.882Z,-1.67
2022-12-18T16:26:42.158Z,-1.67
2022-12-18T16:29:29.951Z,-1.68
2022-12-18T16:32:21.826Z,-1.68
2022-12-18T16:35:08.974Z,-1.71
2022-12-18T16:37:56.790Z,-1.79
2022-12-18T16:40:43.604Z,-1.73
2022-12-18T16:43:31.152Z,-2.13
2022-12-18T16:46:19.975Z,-1.75
2022-12-18T16:49:07.295Z,-1.81
2022-12-18T16:51:54.528Z,-1.79
2022-12-18T16:54:41.601Z,-1.77
2022-12-18T16:57:33.082Z,-1.80
2022-12-18T17:00:19.938Z,-1.77
2022-12-18T17:03:06.923Z,-1.78
2022-12-18T17:05:54.882Z,-2.41
2022-12-18T17:08:41.701Z,-1.82
2022-12-18T17:11:29.152Z,-1.88
2022-12-18T17:14:16.458Z,-1.84
2022-12-18T17:16:43.719Z,-2.08
2022-12-18T17:19:16.767Z,-2.04
2022-12-18T17:21:45.806Z,-1.85
2022-12-18T17:24:35.092Z,-1.89
2022-12-18T17:27:23.364Z,-1.87
2022-12-18T17:29:50.256Z,-1.82
2022-12-18T17:32:37.896Z,-1.88
2022-12-18T17:35:25.281Z,-2.79
2022-12-18T17:38:12.286Z,-1.78
2022-12-18T17:40:59.374Z,-2.05
2022-12-18T17:43:46.354Z,-1.77
2022-12-18T17:46:34.931Z,-1.73
2022-12-18T17:49:23.251Z,-1.73
2022-12-18T17:52:10.100Z,-1.69
2022-12-18T17:54:57.447Z,-1.68
2022-12-18T17:57:44.334Z,-1.64
2022-12-18T18:00:31.855Z,-1.62
2022-12-18T18:03:18.950Z,-1.59
2022-12-18T18:06:06.027Z,-1.78
2022-12-18T18:08:54.782Z,-1.54
2022-12-18T18:11:43.253Z,-1.53
2022-12-18T18:14:36.326Z,-1.52
2022-12-18T18:17:23.379Z,-1.50
2022-12-18T18:20:10.161Z,-1.49
2022-12-18T18:22:57.286Z,-1.48
2022-12-18T18:25:44.513Z,-1.46
2022-12-18T18:28:31.472Z,-1.45
2022-12-18T18:31:18.672Z,-1.54
2022-12-18T18:34:05.836Z,-1.41
2022-12-18T18:36:53.033Z,-1.40
2022-12-18T18:39:40.440Z,-1.38
2022-12-18T18:42:27.360Z,-1.38
2022-12-18T18:45:14.292Z,-1.39
2022-12-18T18:48:01.177Z,-1.70
2022-12-18T18:50:48.107Z,-1.38
2022-12-18T18:53:35.063Z,-1.40
2022-12-18T18:59:31.308Z,-1.39
2022-12-18T19:02:00.604Z,-1.59
2022-12-18T19:04:32.307Z,-1.55
2022-12-18T19:06:59.222Z,-1.35
2022-12-18T19:09:26.749Z,-1.34
2022-12-18T19:12:12.359Z,-1.33
2022-12-18T19:14:39.323Z,-1.31
2022-12-18T19:17:29.666Z,-1.50
2022-12-18T19:20:17.662Z,-1.75
2022-12-18T19:23:04.558Z,-1.28
2022-12-18T19:26:04.204Z,-1.55
2022-12-18T19:28:58.398Z,-1.26
2022-12-18T19:31:45.461Z,-1.26
2022-12-18T19:34:33.693Z,-1.25
2022-12-18T19:37:21.254Z,-1.27
2022-12-18T19:40:12.409Z,-1.25
2022-12-18T19:42:59.751Z,-1.29
2022-12-18T19:45:48.293Z,-1.41
2022-12-18T19:48:35.323Z,-1.23
2022-12-18T19:51:31.866Z,-1.30
2022-12-18T19:54:20.343Z,-1.24
2022-12-18T19:57:07.239Z,-1.25
2022-12-18T19:59:54.168Z,-1.28
2022-12-18T20:02:41.242Z,-1.25
2022-12-18T20:05:32.831Z,-1.26
2022-12-18T20:08:20.071Z,-1.25
2022-12-18T20:11:06.950Z,-1.25
2022-12-18T20:13:54.095Z,-1.88
2022-12-18T20:16:29.389Z,-1.59
2022-12-18T20:19:17.681Z,-1.29
2022-12-18T20:22:04.770Z,-1.29
2022-12-18T20:24:51.623Z,-1.30
2022-12-18T20:27:38.586Z,-1.44
2022-12-18T20:30:25.868Z,-1.37
2022-12-18T20:33:12.667Z,-1.32
2022-12-18T20:35:59.578Z,-1.30
2022-12-18T20:38:46.794Z,-1.32
2022-12-18T20:41:40.648Z,-1.31
2022-12-18T20:44:32.040Z,-1.35
2022-12-18T20:47:19.271Z,-1.30
2022-12-18T20:50:06.263Z,-1.64
2022-12-18T20:52:53.450Z,-1.28
2022-12-18T20:55:40.653Z,-1.25
2022-12-18T20:58:27.538Z,-1.24
2022-12-18T21:01:44.332Z,-1.22
2022-12-18T21:04:36.103Z,-1.22
2022-12-18T21:07:23.141Z,-1.20
2022-12-18T21:10:10.163Z,-1.30
2022-12-18T21:13:03.006Z,-1.18
2022-12-18T21:15:51.509Z,-1.18
2022-12-18T21:18:38.593Z,-1.30
2022-12-18T21:21:26.815Z,-1.18
2022-12-18T21:24:15.278Z,-1.30
2022-12-18T21:27:02.353Z,-1.47
2022-12-18T21:29:49.278Z,-1.16
2022-12-18T21:32:38.636Z,-1.21
2022-12-18T21:35:26.071Z,-1.14
2022-12-18T21:38:16.120Z,-1.75
2022-12-18T21:41:03.053Z,-1.10
2022-12-18T21:43:48.775Z,-1.10
2022-12-18T21:46:35.657Z,-1.10
2022-12-18T21:49:23.945Z,-1.08
2022-12-18T21:52:13.514Z,-1.07
2022-12-18T21:55:06.686Z,-1.06
2022-12-18T21:57:56.314Z,-1.33
2022-12-18T22:00:48.356Z,-1.05
2022-12-18T22:03:35.937Z,-1.33
2022-12-18T22:06:22.915Z,-1.07
2022-12-18T22:09:09.826Z,-1.08
2022-12-18T22:11:56.782Z,-1.21
2022-12-18T22:14:43.900Z,-1.09
2022-12-18T22:17:30.791Z,-1.09
2022-12-18T22:20:17.754Z,-1.09
2022-12-18T22:23:07.291Z,-1.10
2022-12-18T22:25:55.462Z,-1.10
2022-12-18T22:28:40.604Z,-1.09
2022-12-18T22:31:28.156Z,-1.08
2022-12-18T22:34:16.119Z,-1.07
2022-12-18T22:37:07.778Z,-1.61
2022-12-18T22:39:54.757Z,-1.06
2022-12-18T22:42:42.382Z,-1.06
2022-12-18T22:45:29.615Z,-1.04
2022-12-18T22:48:16.686Z,-1.03
2022-12-18T22:51:03.482Z,-1.06
2022-12-18T22:53:50.593Z,-1.03
2022-12-18T22:56:37.583Z,-1.00
2022-12-18T22:59:25.003Z,-1.00
2022-12-18T23:02:12.598Z,-1.01
2022-12-18T23:04:59.802Z,-1.02
2022-12-18T23:07:46.860Z,-1.06
2022-12-18T23:10:33.835Z,-1.03
2022-12-18T23:13:21.246Z,-1.15
2022-12-18T23:16:08.331Z,-1.05
2022-12-18T23:18:55.963Z,-1.13
2022-12-18T23:21:43.946Z,-1.04
2022-12-18T23:24:30.971Z,-1.04
2022-12-18T23:27:19.520Z,-1.23
2022-12-18T23:30:06.311Z,-1.37
2022-12-18T23:32:56.394Z,-1.22
2022-12-18T23:35:43.425Z,-1.35
2022-12-18T23:38:30.294Z,-1.08
2022-12-18T23:41:17.663Z,-1.11
2022-12-18T23:44:05.058Z,-1.08
2022-12-18T23:46:54.909Z,-1.07
2022-12-18T23:49:41.965Z,-1.37
2022-12-18T23:52:28.780Z,-1.09
2022-12-18T23:55:15.729Z,-1.10
2022-12-18T23:58:02.547Z,-1.08
